createdAt,value
2022-10-14T00:01:23.183Z,101205.13
2022-10-14T00:03:53.179Z,101194.91
2022-10-14T00:06:25.449Z,101206.09
2022-10-14T00:08:53.996Z,101197.63
2022-10-14T00:11:25.268Z,101193.16
2022-10-14T00:13:57.230Z,101195.41
2022-10-14T00:16:29.328Z,101189.84
2022-10-14T00:18:58.713Z,101189.56
2022-10-14T00:21:28.943Z,101187.44
2022-10-14T00:23:58.262Z,101182.72
2022-10-14T00:26:29.359Z,101185.34
2022-10-14T00:28:58.394Z,101180.56
2022-10-14T00:31:27.014Z,101184.66
2022-10-14T00:33:55.556Z,101183.06
2022-10-14T00:36:25.391Z,101184.97
2022-10-14T00:38:55.990Z,101196.50
2022-10-14T00:41:26.625Z,101190.81
2022-10-14T00:43:59.522Z,101191.06
2022-10-14T00:46:30.102Z,101186.63
2022-10-14T00:48:59.586Z,101189.47
2022-10-14T00:51:28.492Z,101187.72
2022-10-14T00:53:58.419Z,101191.69
2022-10-14T00:56:29.769Z,101183.63
2022-10-14T00:58:59.502Z,101188.59
2022-10-14T01:01:27.953Z,101190.69
2022-10-14T01:03:56.454Z,101181.84
2022-10-14T01:06:36.288Z,101180.84
2022-10-14T01:09:15.059Z,101182.06
2022-10-14T01:12:16.258Z,101186.16
2022-10-14T01:14:59.239Z,101184.81
2022-10-14T01:17:37.258Z,101187.41
2022-10-14T01:20:29.033Z,101178.75
2022-10-14T01:23:10.186Z,101172.88
2022-10-14T01:25:54.234Z,101174.63
2022-10-14T01:28:30.327Z,101161.47
2022-10-14T01:31:05.102Z,101156.50
2022-10-14T01:33:38.012Z,101153.84
2022-10-14T01:36:12.092Z,101153.31
2022-10-14T01:38:46.014Z,101139.97
2022-10-14T01:41:18.996Z,101143.16
2022-10-14T01:43:50.369Z,101139.59
2022-10-14T01:46:23.185Z,101132.69
2022-10-14T01:48:55.587Z,101130.88
2022-10-14T01:51:28.786Z,101130.75
2022-10-14T01:54:02.942Z,101124.94
2022-10-14T01:56:38.157Z,101128.72
2022-10-14T01:59:12.991Z,101115.50
2022-10-14T02:01:42.850Z,101120.88
2022-10-14T02:04:17.127Z,101119.78
2022-10-14T02:06:49.663Z,101129.41
2022-10-14T02:09:24.692Z,101125.03
2022-10-14T02:12:05.422Z,101118.56
2022-10-14T02:14:41.142Z,101123.63
2022-10-14T02:17:18.485Z,101121.06
2022-10-14T02:19:53.876Z,101122.00
2022-10-14T02:22:28.339Z,101117.97
2022-10-14T02:25:01.691Z,101111.88
2022-10-14T02:27:32.504Z,101109.69
2022-10-14T02:30:01.730Z,101110.88
2022-10-14T02:32:32.700Z,101114.28
2022-10-14T02:35:02.877Z,101108.44
2022-10-14T02:37:33.072Z,101107.47
2022-10-14T02:40:08.400Z,101110.06
2022-10-14T02:42:37.035Z,101092.91
2022-10-14T02:45:06.916Z,101088.81
2022-10-14T02:47:36.738Z,101084.66
2022-10-14T02:50:05.679Z,101077.25
2022-10-14T02:52:34.877Z,101065.19
2022-10-14T02:55:03.395Z,101070.56
2022-10-14T02:57:31.831Z,101073.47
2022-10-14T03:00:00.318Z,101074.84
2022-10-14T03:02:28.807Z,101074.28
2022-10-14T03:04:58.990Z,101070.50
2022-10-14T03:07:27.540Z,101070.19
2022-10-14T03:09:56.011Z,101077.34
2022-10-14T03:12:24.666Z,101068.13
2022-10-14T03:14:53.353Z,101063.31
2022-10-14T03:17:22.173Z,101066.09
2022-10-14T03:19:50.660Z,101060.50
2022-10-14T03:22:20.746Z,101061.22
2022-10-14T03:24:49.377Z,101054.97
2022-10-14T03:27:17.871Z,101052.28
2022-10-14T03:29:46.401Z,101056.38
2022-10-14T03:32:14.906Z,101048.34
2022-10-14T03:34:43.409Z,101048.81
2022-10-14T03:37:11.883Z,101052.69
2022-10-14T03:39:41.730Z,101060.00
2022-10-14T03:42:10.195Z,101050.94
2022-10-14T03:44:38.668Z,101048.34
2022-10-14T03:47:07.191Z,101049.94
2022-10-14T03:49:35.666Z,101047.50
2022-10-14T03:52:04.672Z,101040.41
2022-10-14T03:54:33.169Z,101042.19
2022-10-14T03:57:03.072Z,101049.16
2022-10-14T03:59:31.570Z,101037.59
2022-10-14T04:02:00.154Z,101041.88
2022-10-14T04:04:28.716Z,101044.88
2022-10-14T04:06:57.761Z,101053.91
2022-10-14T04:09:27.502Z,101045.44
2022-10-14T04:11:57.766Z,101043.72
2022-10-14T04:14:28.016Z,101053.25
2022-10-14T04:16:56.532Z,101046.88
2022-10-14T04:19:25.089Z,101061.94
2022-10-14T04:21:53.545Z,101046.75
2022-10-14T04:24:22.018Z,101045.44
2022-10-14T04:26:52.291Z,101034.09
2022-10-14T04:29:20.849Z,101040.09
2022-10-14T04:31:50.701Z,101044.59
2022-10-14T04:34:19.188Z,101040.75
2022-10-14T04:36:47.697Z,101033.63
2022-10-14T04:39:16.331Z,101032.97
2022-10-14T04:41:44.832Z,101038.72
2022-10-14T04:44:13.374Z,101033.91
2022-10-14T04:46:41.833Z,101037.53
2022-10-14T04:49:12.739Z,101026.97
2022-10-14T04:51:41.271Z,101031.69
2022-10-14T04:54:10.188Z,101027.72
2022-10-14T04:56:39.040Z,101020.75
2022-10-14T04:59:07.755Z,101014.28
2022-10-14T05:01:36.419Z,101018.41
2022-10-14T05:04:05.078Z,101014.06
2022-10-14T05:06:35.376Z,101001.31
2022-10-14T05:09:03.981Z,100999.53
2022-10-14T05:11:32.727Z,100997.38
2022-10-14T05:14:02.319Z,100999.41
2022-10-14T05:16:30.810Z,100997.63
2022-10-14T05:18:59.245Z,101000.28
2022-10-14T05:21:27.742Z,100996.16
2022-10-14T05:23:57.569Z,100992.59
2022-10-14T05:26:26.314Z,100993.47
2022-10-14T05:28:54.869Z,100990.91
2022-10-14T05:31:23.385Z,100984.53
2022-10-14T05:33:51.837Z,100987.28
2022-10-14T05:36:20.338Z,100990.06
2022-10-14T05:38:50.294Z,100981.38
2022-10-14T05:41:20.108Z,100974.16
2022-10-14T05:43:48.592Z,100978.91
2022-10-14T05:46:17.075Z,100985.53
2022-10-14T05:48:45.518Z,100980.41
2022-10-14T05:51:15.528Z,100966.47
2022-10-14T05:53:44.148Z,100973.72
2022-10-14T05:56:12.650Z,100961.66
2022-10-14T05:58:42.728Z,100966.56
2022-10-14T06:01:13.360Z,100972.91
2022-10-14T06:03:41.919Z,100963.91
2022-10-14T06:06:14.976Z,100963.53
2022-10-14T06:08:43.504Z,100951.78
2022-10-14T06:11:12.377Z,100962.47
2022-10-14T06:13:42.234Z,100952.88
2022-10-14T06:16:11.911Z,100951.34
2022-10-14T06:18:40.877Z,100949.31
2022-10-14T06:21:10.623Z,100948.28
2022-10-14T06:23:39.093Z,100943.94
2022-10-14T06:26:09.730Z,100936.88
2022-10-14T06:28:38.861Z,100949.16
2022-10-14T06:31:09.008Z,100947.53
2022-10-14T06:33:37.608Z,100954.75
2022-10-14T06:36:07.055Z,100951.41
2022-10-14T06:38:35.552Z,100954.00
2022-10-14T06:41:04.093Z,100950.78
2022-10-14T06:43:32.578Z,100960.66
2022-10-14T06:46:01.070Z,100948.03
2022-10-14T06:48:31.320Z,100948.91
2022-10-14T06:51:01.032Z,100943.03
2022-10-14T06:53:29.590Z,100948.75
2022-10-14T06:56:02.361Z,100945.25
2022-10-14T06:58:31.554Z,100942.50
2022-10-14T07:01:03.935Z,100934.16
2022-10-14T07:03:36.409Z,100927.13
2022-10-14T07:06:05.801Z,100934.28
2022-10-14T07:08:34.329Z,100928.72
2022-10-14T07:11:02.843Z,100936.69
2022-10-14T07:13:31.289Z,100938.72
2022-10-14T07:15:59.744Z,100932.31
2022-10-14T07:18:28.388Z,100928.94
2022-10-14T07:20:58.366Z,100927.66
2022-10-14T07:23:26.867Z,100925.09
2022-10-14T07:25:58.000Z,100913.91
2022-10-14T07:28:26.691Z,100919.88
2022-10-14T07:30:59.776Z,100905.41
2022-10-14T07:33:28.438Z,100914.69
2022-10-14T07:36:02.288Z,100918.78
2022-10-14T07:38:31.463Z,100918.28
2022-10-14T07:41:02.321Z,100915.00
2022-10-14T07:43:31.010Z,100922.63
2022-10-14T07:46:02.897Z,100923.88
2022-10-14T07:48:44.931Z,100930.38
2022-10-14T07:51:22.332Z,100940.38
2022-10-14T07:53:52.909Z,100939.31
2022-10-14T07:56:22.380Z,100936.44
2022-10-14T07:58:50.834Z,100936.59
2022-10-14T08:01:20.240Z,100936.03
2022-10-14T08:03:49.428Z,100933.00
2022-10-14T08:06:18.324Z,100933.84
2022-10-14T08:08:48.170Z,100933.16
2022-10-14T08:11:18.560Z,100916.84
2022-10-14T08:13:47.556Z,100915.59
2022-10-14T08:16:19.070Z,100907.25
2022-10-14T08:18:48.559Z,100901.81
2022-10-14T08:21:18.672Z,100909.81
2022-10-14T08:23:49.057Z,100903.16
2022-10-14T08:26:22.244Z,100895.72
2022-10-14T08:28:51.659Z,100898.53
2022-10-14T08:31:20.573Z,100896.00
2022-10-14T08:33:49.806Z,100899.75
2022-10-14T08:36:19.438Z,100894.56
2022-10-14T08:38:49.757Z,100892.03
2022-10-14T08:41:36.844Z,100882.88
2022-10-14T08:44:16.196Z,100876.94
2022-10-14T08:46:51.202Z,100879.38
2022-10-14T08:49:26.973Z,100883.66
2022-10-14T08:52:01.239Z,100885.41
2022-10-14T08:54:38.566Z,100879.72
2022-10-14T08:57:13.758Z,100877.84
2022-10-14T08:59:43.181Z,100873.06
2022-10-14T09:02:25.205Z,100880.91
2022-10-14T09:04:53.742Z,100876.22
2022-10-14T09:07:23.196Z,100870.22
2022-10-14T09:09:57.860Z,100862.59
2022-10-14T09:12:30.641Z,100873.44
2022-10-14T09:15:09.536Z,100865.91
2022-10-14T09:17:44.138Z,100862.94
2022-10-14T09:20:19.317Z,100864.75
2022-10-14T09:23:01.670Z,100852.97
2022-10-14T09:25:35.369Z,100856.84
2022-10-14T09:28:03.952Z,100854.34
2022-10-14T09:30:37.045Z,100854.59
2022-10-14T09:33:06.653Z,100850.78
2022-10-14T09:35:38.415Z,100847.94
2022-10-14T09:38:07.526Z,100849.50
2022-10-14T09:40:41.760Z,100857.31
2022-10-14T09:43:18.781Z,100847.81
2022-10-14T09:45:54.049Z,100848.06
2022-10-14T09:48:33.272Z,100843.41
2022-10-14T09:51:04.065Z,100848.16
2022-10-14T09:53:35.716Z,100852.41
2022-10-14T09:56:08.024Z,100849.88
2022-10-14T09:58:40.643Z,100842.97
2022-10-14T10:01:15.010Z,100840.31
2022-10-14T10:03:45.940Z,100831.84
2022-10-14T10:06:19.054Z,100836.91
2022-10-14T10:08:58.437Z,100835.88
2022-10-14T10:11:33.454Z,100827.75
2022-10-14T10:14:18.542Z,100823.91
2022-10-14T10:16:47.157Z,100823.41
2022-10-14T10:19:28.213Z,100816.78
2022-10-14T10:22:16.855Z,100815.56
2022-10-14T10:24:46.103Z,100826.91
2022-10-14T10:27:25.558Z,100822.06
2022-10-14T10:29:55.862Z,100824.66
2022-10-14T10:32:31.602Z,100808.66
2022-10-14T10:35:14.505Z,100812.91
2022-10-14T10:37:51.798Z,100805.47
2022-10-14T10:40:34.282Z,100805.47
2022-10-14T10:43:36.399Z,100805.94
2022-10-14T10:46:22.554Z,100795.59
2022-10-14T10:49:01.605Z,100800.34
2022-10-14T10:51:41.553Z,100789.66
2022-10-14T10:54:21.506Z,100790.63
2022-10-14T10:56:52.282Z,100778.78
2022-10-14T10:59:56.227Z,100787.97
2022-10-14T11:02:52.116Z,100786.69
2022-10-14T11:05:37.984Z,100780.41
2022-10-14T11:08:38.276Z,100776.44
2022-10-14T11:11:40.767Z,100778.31
2022-10-14T11:14:19.257Z,100776.34
2022-10-14T11:16:56.112Z,100772.88
2022-10-14T11:19:33.433Z,100774.06
2022-10-14T11:22:09.511Z,100774.91
2022-10-14T11:24:58.751Z,100769.06
2022-10-14T11:27:36.990Z,100771.00
2022-10-14T11:30:15.291Z,100765.78
2022-10-14T11:33:03.668Z,100761.66
2022-10-14T11:35:44.272Z,100756.63
2022-10-14T11:41:13.852Z,100749.19
2022-10-14T11:43:51.304Z,100741.47
2022-10-14T11:46:22.409Z,100740.25
2022-10-14T11:48:55.368Z,100735.19
2022-10-14T11:51:34.876Z,100734.41
2022-10-14T11:54:11.243Z,100726.16
2022-10-14T11:56:46.603Z,100732.34
2022-10-14T11:59:24.445Z,100716.59
2022-10-14T12:02:00.419Z,100723.06
2022-10-14T12:04:32.392Z,100717.03
2022-10-14T12:07:09.579Z,100719.69
2022-10-14T12:09:42.486Z,100712.16
2022-10-14T12:12:15.359Z,100716.16
2022-10-14T12:14:48.331Z,100714.97
2022-10-14T12:17:22.571Z,100707.13
2022-10-14T12:19:52.281Z,100713.38
2022-10-14T12:22:25.472Z,100706.25
2022-10-14T12:24:55.546Z,100701.56
2022-10-14T12:27:26.987Z,100704.66
2022-10-14T12:29:58.334Z,100694.97
2022-10-14T12:32:28.729Z,100689.09
2022-10-14T12:34:58.396Z,100689.03
2022-10-14T12:37:54.372Z,100691.00
2022-10-14T12:40:30.931Z,100682.66
2022-10-14T12:43:23.616Z,100684.00
2022-10-14T12:46:05.082Z,100664.09
2022-10-14T12:48:35.881Z,100670.50
2022-10-14T12:51:14.616Z,100670.28
2022-10-14T12:53:58.088Z,100658.59
2022-10-14T12:56:40.272Z,100659.75
2022-10-14T12:59:10.305Z,100664.31
2022-10-14T13:01:39.064Z,100650.66
2022-10-14T13:04:19.951Z,100648.81
2022-10-14T13:07:41.173Z,100647.78
2022-10-14T13:10:48.549Z,100627.81
2022-10-14T13:13:52.811Z,100629.00
2022-10-14T13:16:57.164Z,100629.44
2022-10-14T13:19:45.435Z,100627.00
2022-10-14T13:22:38.050Z,100623.03
2022-10-14T13:25:14.002Z,100632.25
2022-10-14T13:28:04.693Z,100619.75
2022-10-14T13:30:52.366Z,100623.06
2022-10-14T13:33:27.685Z,100616.00
2022-10-14T13:36:06.154Z,100605.06
2022-10-14T13:38:35.922Z,100605.97
2022-10-14T13:41:05.167Z,100610.09
2022-10-14T13:43:39.657Z,100614.97
2022-10-14T13:46:15.081Z,100603.19
2022-10-14T13:48:47.273Z,100601.19
2022-10-14T13:51:36.700Z,100599.91
2022-10-14T13:54:17.837Z,100603.56
2022-10-14T13:57:13.805Z,100603.22
2022-10-14T14:02:39.277Z,100603.63
2022-10-14T14:05:15.362Z,100598.91
2022-10-14T14:10:39.142Z,100599.50
2022-10-14T14:13:14.410Z,100598.19
2022-10-14T14:15:49.730Z,100594.34
2022-10-14T14:18:38.219Z,100590.13
2022-10-14T14:21:17.797Z,100597.19
2022-10-14T14:23:53.321Z,100597.03
2022-10-14T14:26:24.765Z,100589.38
2022-10-14T14:28:53.364Z,100585.53
2022-10-14T14:31:42.475Z,100569.78
2022-10-14T14:34:18.747Z,100564.13
2022-10-14T14:36:51.157Z,100565.84
2022-10-14T14:39:24.345Z,100560.09
2022-10-14T14:41:53.995Z,100575.59
2022-10-14T14:44:26.380Z,100573.84
2022-10-14T14:47:00.394Z,100570.78
2022-10-14T14:49:31.382Z,100571.34
2022-10-14T14:52:01.186Z,100572.00
2022-10-14T14:54:30.325Z,100572.31
2022-10-14T14:57:05.096Z,100569.81
2022-10-14T14:59:37.405Z,100554.25
2022-10-14T15:02:15.599Z,100553.94
2022-10-14T15:04:44.512Z,100559.09
2022-10-14T15:07:21.363Z,100550.75
2022-10-14T15:09:54.664Z,100554.66
2022-10-14T15:12:26.135Z,100548.25
2022-10-14T15:14:56.467Z,100553.84
2022-10-14T15:17:33.030Z,100553.41
2022-10-14T15:20:17.551Z,100552.06
2022-10-14T15:22:47.136Z,100552.59
2022-10-14T15:25:24.870Z,100545.78
2022-10-14T15:27:55.394Z,100544.47
2022-10-14T15:30:38.192Z,100536.91
2022-10-14T15:33:16.704Z,100534.41
2022-10-14T15:35:46.603Z,100540.28
2022-10-14T15:38:18.452Z,100531.19
2022-10-14T15:40:48.392Z,100530.63
2022-10-14T15:43:18.750Z,100521.97
2022-10-14T15:46:10.642Z,100525.78
2022-10-14T15:48:41.124Z,100535.03
2022-10-14T15:51:14.137Z,100520.84
2022-10-14T15:53:42.605Z,100518.38
2022-10-14T15:56:11.310Z,100525.06
2022-10-14T15:58:39.807Z,100515.88
2022-10-14T16:01:08.676Z,100526.75
2022-10-14T16:03:41.130Z,100522.00
2022-10-14T16:06:11.299Z,100515.91
2022-10-14T16:08:40.240Z,100519.78
2022-10-14T16:11:15.854Z,100512.84
2022-10-14T16:13:44.781Z,100520.38
2022-10-14T16:16:15.822Z,100523.38
2022-10-14T16:18:44.294Z,100520.59
2022-10-14T16:21:17.377Z,100510.59
2022-10-14T16:23:46.209Z,100525.88
2022-10-14T16:26:14.680Z,100519.50
2022-10-14T16:28:43.158Z,100522.56
2022-10-14T16:31:13.667Z,100526.19
2022-10-14T16:33:44.918Z,100513.91
2022-10-14T16:36:16.474Z,100517.84
2022-10-14T16:38:44.970Z,100510.59
2022-10-14T16:41:13.873Z,100505.03
2022-10-14T16:43:42.474Z,100510.31
2022-10-14T16:46:15.420Z,100515.31
2022-10-14T16:48:44.576Z,100505.31
2022-10-14T16:51:13.207Z,100518.97
2022-10-14T16:53:44.911Z,100516.75
2022-10-14T16:56:33.450Z,100517.25
2022-10-14T16:59:02.365Z,100516.75
2022-10-14T17:01:31.816Z,100515.34
2022-10-14T17:04:00.575Z,100521.78
2022-10-14T17:06:29.914Z,100531.81
2022-10-14T17:08:59.752Z,100521.78
2022-10-14T17:11:29.245Z,100533.72
2022-10-14T17:13:58.805Z,100527.06
2022-10-14T17:16:28.759Z,100536.25
2022-10-14T17:18:58.435Z,100520.41
2022-10-14T17:21:29.342Z,100524.25
2022-10-14T17:24:02.586Z,100523.72
2022-10-14T17:26:32.328Z,100516.47
2022-10-14T17:29:01.252Z,100519.78
2022-10-14T17:31:30.640Z,100514.75
2022-10-14T17:34:01.428Z,100522.88
2022-10-14T17:36:31.668Z,100527.06
2022-10-14T17:39:01.712Z,100527.63
2022-10-14T17:41:30.984Z,100527.88
2022-10-14T17:44:01.401Z,100515.06
2022-10-14T17:46:31.526Z,100507.84
2022-10-14T17:49:01.679Z,100508.97
2022-10-14T17:51:31.755Z,100514.53
2022-10-14T17:54:04.598Z,100510.06
2022-10-14T17:56:35.037Z,100511.19
2022-10-14T17:59:05.601Z,100500.03
2022-10-14T18:02:00.905Z,100509.50
2022-10-14T18:04:22.957Z,100510.91
2022-10-14T18:06:52.658Z,100504.19
2022-10-14T18:09:22.642Z,100504.47
2022-10-14T18:14:40.618Z,100513.69
2022-10-14T18:17:10.712Z,100525.97
2022-10-14T18:19:40.811Z,100521.75
2022-10-14T18:22:11.203Z,100524.25
2022-10-14T18:24:41.270Z,100528.72
2022-10-14T18:27:09.789Z,100530.94
2022-10-14T18:29:38.393Z,100520.63
2022-10-14T18:32:07.031Z,100510.59
2022-10-14T18:34:35.525Z,100508.38
2022-10-14T18:37:04.016Z,100508.63
2022-10-14T18:39:32.503Z,100515.88
2022-10-14T18:42:02.340Z,100509.75
2022-10-14T18:44:30.818Z,100510.31
2022-10-14T18:46:59.300Z,100512.00
2022-10-14T18:49:27.761Z,100518.41
2022-10-14T18:51:56.245Z,100505.59
2022-10-14T18:54:25.048Z,100499.75
2022-10-14T18:56:54.901Z,100492.78
2022-10-14T18:59:25.837Z,100491.38
2022-10-14T19:01:55.339Z,100486.41
2022-10-14T19:04:26.760Z,100493.06
2022-10-14T19:06:55.372Z,100495.28
2022-10-14T19:09:28.948Z,100488.88
2022-10-14T19:11:59.003Z,100490.25
2022-10-14T19:14:31.777Z,100490.81
2022-10-14T19:17:00.298Z,100497.78
2022-10-14T19:19:28.820Z,100490.53
2022-10-14T19:21:59.636Z,100482.72
2022-10-14T19:24:28.359Z,100501.69
2022-10-14T19:26:57.218Z,100496.66
2022-10-14T19:29:25.763Z,100486.38
2022-10-14T19:31:55.591Z,100494.47
2022-10-14T19:34:27.073Z,100487.47
2022-10-14T19:36:55.912Z,100488.03
2022-10-14T19:39:24.370Z,100479.13
2022-10-14T19:41:52.830Z,100483.03
2022-10-14T19:44:21.325Z,100481.09
2022-10-14T19:46:49.871Z,100470.50
2022-10-14T19:49:19.969Z,100478.28
2022-10-14T19:51:48.476Z,100465.19
2022-10-14T19:54:17.169Z,100453.22
2022-10-14T19:56:45.652Z,100452.38
2022-10-14T19:59:14.884Z,100466.84
2022-10-14T20:01:43.417Z,100466.03
2022-10-14T20:04:12.268Z,100454.59
2022-10-14T20:06:42.955Z,100457.94
2022-10-14T20:09:14.616Z,100449.88
2022-10-14T20:11:43.652Z,100447.34
2022-10-14T20:14:12.151Z,100464.06
2022-10-14T20:16:40.768Z,100469.63
2022-10-14T20:19:09.221Z,100449.84
2022-10-14T20:21:37.773Z,100444.53
2022-10-14T20:24:08.057Z,100451.25
2022-10-14T20:26:37.597Z,100448.72
2022-10-14T20:29:06.101Z,100447.88
2022-10-14T20:31:34.581Z,100445.09
2022-10-14T20:34:07.277Z,100439.53
2022-10-14T20:36:39.735Z,100437.88
2022-10-14T20:39:09.536Z,100446.81
2022-10-14T20:41:38.027Z,100443.47
2022-10-14T20:44:06.740Z,100444.84
2022-10-14T20:46:35.205Z,100442.91
2022-10-14T20:49:04.164Z,100441.25
2022-10-14T20:51:32.955Z,100440.94
2022-10-14T20:54:04.107Z,100448.22
2022-10-14T20:56:36.713Z,100442.66
2022-10-14T20:59:07.917Z,100427.59
2022-10-14T21:01:37.679Z,100427.03
2022-10-14T21:04:08.164Z,100435.38
2022-10-14T21:06:38.773Z,100440.94
2022-10-14T21:09:07.767Z,100431.75
2022-10-14T21:11:37.641Z,100433.41
2022-10-14T21:14:06.109Z,100433.97
2022-10-14T21:16:36.324Z,100434.81
2022-10-14T21:19:07.101Z,100430.66
2022-10-14T21:21:37.463Z,100434.00
2022-10-14T21:24:06.789Z,100438.16
2022-10-14T21:26:36.643Z,100435.38
2022-10-14T21:29:05.981Z,100430.41
2022-10-14T21:31:34.490Z,100420.63
2022-10-14T21:34:06.456Z,100436.25
2022-10-14T21:36:35.992Z,100423.97
2022-10-14T21:39:07.414Z,100419.78
2022-10-14T21:41:37.853Z,100432.03
2022-10-14T21:44:07.413Z,100428.97
2022-10-14T21:46:36.686Z,100430.63
2022-10-14T21:49:05.267Z,100431.47
2022-10-14T21:51:34.258Z,100432.88
2022-10-14T21:54:02.756Z,100428.13
2022-10-14T21:56:31.314Z,100433.72
2022-10-14T21:59:01.170Z,100414.25
2022-10-14T22:01:30.701Z,100428.72
2022-10-14T22:04:01.233Z,100422.00
2022-10-14T22:06:31.346Z,100428.41
2022-10-14T22:09:01.728Z,100421.16
2022-10-14T22:11:32.944Z,100421.16
2022-10-14T22:14:04.468Z,100420.56
2022-10-14T22:16:33.055Z,100427.56
2022-10-14T22:19:03.909Z,100428.66
2022-10-14T22:21:35.150Z,100436.47
2022-10-14T22:24:04.197Z,100427.00
2022-10-14T22:26:33.653Z,100427.31
2022-10-14T22:29:05.655Z,100423.94
2022-10-14T22:31:35.004Z,100421.72
2022-10-14T22:34:04.839Z,100430.69
2022-10-14T22:36:34.981Z,100425.09
2022-10-14T22:39:05.944Z,100426.72
2022-10-14T22:41:35.949Z,100421.97
2022-10-14T22:44:08.331Z,100427.53
2022-10-14T22:46:38.624Z,100428.94
2022-10-14T22:49:07.287Z,100421.16
2022-10-14T22:51:40.407Z,100424.22
2022-10-14T22:54:09.523Z,100417.00
2022-10-14T22:56:38.514Z,100407.81
2022-10-14T22:59:10.971Z,100412.25
2022-10-14T23:01:40.159Z,100416.69
2022-10-14T23:04:09.211Z,100416.97
2022-10-14T23:06:37.785Z,100411.66
2022-10-14T23:09:06.915Z,100410.25
2022-10-14T23:11:35.402Z,100403.88
2022-10-14T23:14:06.970Z,100416.16
2022-10-14T23:16:37.792Z,100414.47
2022-10-14T23:19:06.345Z,100406.94
2022-10-14T23:21:36.612Z,100410.59
2022-10-14T23:24:08.123Z,100414.78
2022-10-14T23:26:37.341Z,100402.81
2022-10-14T23:29:08.538Z,100400.03
2022-10-14T23:31:40.240Z,100400.91
2022-10-14T23:34:11.579Z,100396.72
2022-10-14T23:36:40.629Z,100398.41
2022-10-14T23:39:09.555Z,100398.38
2022-10-14T23:41:38.046Z,100390.28
2022-10-14T23:44:06.553Z,100396.13
2022-10-14T23:46:35.047Z,100406.72
2022-10-14T23:49:25.162Z,100402.53
2022-10-14T23:51:53.358Z,100405.63
2022-10-14T23:54:21.865Z,100406.19
2022-10-14T23:56:50.367Z,100403.09
2022-10-14T23:59:19.177Z,100398.63
